Terminal Aerodrome Forecast
Issued by NWS

Home | Current Version | Previous Version | Text Only | Print | Product List | Glossary On
Versions: 1 2 3 4 5 6 7 8 9 10 11 12 13 14 15
556
FTUS41 KPBZ 210520
TAFZZV
TAF
KZZV 210520Z 2106/2206 19009KT P6SM BKN120 WS020/22045KT
     FM211300 21012KT P6SM VCSH OVC050
     FM211600 30010G20KT 5SM -SHRA OVC015
     FM211800 33010KT 5SM -SHRA OVC008
     FM212200 36008KT P6SM -SHRA OVC010=

USA.gov is the U.S. government's official web portal to all federal, state and local government web resources and services.